»·PEaware :: N360BG KFUL-KSBP

N360BG :: KFUL-KSBP

FLIGHT INFORMATION

Flight Status: Arrived
Operator: Privately registered:
United States
More flights under this callsign
Pilot: Brandon G. (13)
Aircraft: PILATUS PC-12 EAGLE
(PC12)
More flights by this aircraft type
Origin: KFUL Fullerton Mun
United States
Destination: KSBP San Luis Co Regl
United States
More flights between these airports :: More routes between these airports
Route: +SXC V208 VTU T257 MQO
File this flight plan on PilotEdge
Remarks:
Altitude:
(Current/Filed)
8,000ft
Speed:
(Current/Filed)
300kts
Departed: 08-Sep-18 05:36 PM
Arrived: 08-Sep-18 06:29 PM
Distance/Time
Traveled:
155nm/0:52
Distance/Time
To Go:
Arrived

Flight Plot

Page will automatically refresh every two minutes.

Flight plan parsing failed; only flown route is shown


Map Options




Map Legend


Flown Route
Filed Route
Departure Airport
Arrival Airport
Navaid (VOR, NDB)
Fix

Horizontal Profiles

Position Reports

Time Latitude Longitude Heading Altitude Ground
Speed
08-Sep-18 17:25 33.871185 -117.980450 344 92ft 0kts
08-Sep-18 17:26 33.871185 -117.980450 344 92ft 0kts
08-Sep-18 17:27 33.871185 -117.980450 344 92ft 0kts
08-Sep-18 17:28 33.871185 -117.980450 344 92ft 0kts
08-Sep-18 17:29 33.871185 -117.980450 344 92ft 0kts
08-Sep-18 17:30 33.871185 -117.980450 344 92ft 0kts
08-Sep-18 17:31 33.871185 -117.980450 344 92ft 0kts
08-Sep-18 17:32 33.871185 -117.980450 344 92ft 0kts
08-Sep-18 17:33 33.871185 -117.980450 344 92ft 0kts
08-Sep-18 17:34 33.871185 -117.980450 344 92ft 0kts
08-Sep-18 17:35 33.871415 -117.980340 46 92ft 5kts
08-Sep-18 17:36 33.872384 -117.975776 77 96ft 19kts
08-Sep-18 17:37 33.872590 -117.974842 46 96ft 2kts
08-Sep-18 17:38 33.869916 -117.990235 235 712ft 101kts
08-Sep-18 17:39 33.843504 -117.973334 131 2023ft 196kts
08-Sep-18 17:40 33.805920 -117.921394 149 3620ft 201kts
08-Sep-18 17:41 33.760675 -117.944293 224 5616ft 195kts
08-Sep-18 17:42 33.723255 -117.990622 226 7122ft 204kts
08-Sep-18 17:43 33.682527 -118.041427 226 7988ft 223kts
08-Sep-18 17:44 33.637074 -118.098047 226 8001ft 246kts
08-Sep-18 17:45 33.583841 -118.150077 214 8000ft 253kts
08-Sep-18 17:46 33.536315 -118.211569 229 8017ft 254kts
08-Sep-18 17:47 33.488567 -118.274316 228 7970ft 256kts
08-Sep-18 17:48 33.440185 -118.336268 227 8005ft 256kts
08-Sep-18 17:49 33.397118 -118.402795 255 8007ft 254kts
08-Sep-18 17:50 33.416266 -118.479465 309 8009ft 253kts
08-Sep-18 17:51 33.461351 -118.543851 310 8007ft 253kts
08-Sep-18 17:52 33.506567 -118.608167 309 8008ft 254kts
08-Sep-18 17:53 33.550895 -118.671440 309 8009ft 254kts
08-Sep-18 17:54 33.596366 -118.735846 309 8082ft 253kts
08-Sep-18 17:55 33.641420 -118.800667 309 8068ft 254kts
08-Sep-18 17:56 33.686629 -118.865787 309 8042ft 254kts
08-Sep-18 17:57 33.731469 -118.930350 309 8025ft 252kts
08-Sep-18 17:58 33.775787 -118.994186 310 8017ft 251kts
08-Sep-18 17:59 33.839689 -119.020968 352 8018ft 255kts
08-Sep-18 17:59 33.898180 -119.027134 353 8017ft 255kts
08-Sep-18 18:01 33.980029 -119.035589 353 8017ft 255kts
08-Sep-18 18:02 34.050114 -119.042932 352 8017ft 255kts
08-Sep-18 18:02 34.106119 -119.052915 333 8020ft 252kts
08-Sep-18 18:03 34.150841 -119.114692 303 8013ft 249kts
08-Sep-18 18:05 34.195165 -119.195384 302 8010ft 248kts
08-Sep-18 18:05 34.226774 -119.253146 302 8008ft 248kts
08-Sep-18 18:06 34.264419 -119.321906 303 7999ft 248kts
08-Sep-18 18:07 34.302463 -119.391004 303 7999ft 248kts
08-Sep-18 18:08 34.340391 -119.460698 302 7998ft 249kts
08-Sep-18 18:09 34.378670 -119.531142 301 7998ft 251kts
08-Sep-18 18:11 34.417264 -119.602050 301 7999ft 254kts
08-Sep-18 18:12 34.455827 -119.673064 301 8000ft 254kts
08-Sep-18 18:13 34.494626 -119.744670 301 8000ft 254kts
08-Sep-18 18:14 34.539373 -119.811086 310 8005ft 255kts
08-Sep-18 18:15 34.586851 -119.873471 310 8016ft 254kts
08-Sep-18 18:16 34.634363 -119.936030 310 8025ft 252kts
08-Sep-18 18:17 34.681707 -119.998583 311 8034ft 251kts
08-Sep-18 18:18 34.729138 -120.060730 311 8036ft 251kts
08-Sep-18 18:19 34.776245 -120.123021 311 8037ft 250kts
08-Sep-18 18:20 34.823252 -120.185399 311 8040ft 250kts
08-Sep-18 18:21 34.870012 -120.247438 312 8043ft 249kts
08-Sep-18 18:22 34.916422 -120.309159 312 8044ft 249kts
08-Sep-18 18:23 34.963076 -120.371296 312 8044ft 249kts
08-Sep-18 18:24 35.009879 -120.433450 312 7145ft 247kts
08-Sep-18 18:25 35.069113 -120.468560 348 6142ft 241kts
08-Sep-18 18:26 35.127047 -120.480808 348 5147ft 203kts
08-Sep-18 18:27 35.166992 -120.517314 304 3784ft 174kts
08-Sep-18 18:28 35.191181 -120.563239 302 1761ft 149kts
08-Sep-18 18:29 35.210070 -120.593933 305 1011ft 102kts
08-Sep-18 18:30 35.225999 -120.621420 304 526ft 97kts
08-Sep-18 18:31 35.237341 -120.639938 4 191ft 13kts
08-Sep-18 18:32 35.238146 -120.638449 5 197ft 17kts
08-Sep-18 18:33 35.238374 -120.638456 356 197ft 0kts
08-Sep-18 18:34 35.238374 -120.638456 356 197ft 0kts
08-Sep-18 18:35 35.238374 -120.638456 356 197ft 0kts
08-Sep-18 18:36 35.238374 -120.638456 356 197ft 0kts

Navigation Log

Ident Type
Flight plan parsing failed, navigation log unavailable